KCEY/CEY METAR and TAF weather

Enter ICAO airport designator
Station Type Date Time Source
KCEY METAR 2020/09/22 04:55 UTC NOAA

KCEY 220455Z AUTO 00000KT 10SM CLR 13/11 A3026 RMK AO1


Station Type Date Time Source
KCEY Decoded METAR 2020/09/22 04:55 UTC NOAA

Station name not available
Sep 22, 2020 - 12:55 AM EDT / 2020.09.22 0455 UTC
Wind: Calm:0
Visibility: 10 mile(s):0
Sky conditions: clear
Temperature: 55 F (13 C)
Dew Point: 51 F (11 C)
Relative Humidity: 87%
Pressure (altimeter): 30.26 in. Hg (1024 hPa)
ob: KCEY 220455Z AUTO 00000KT 10SM CLR 13/11 A3026 RMK AO1
cycle: 5

Station Type Date Time Source
KCEY TAF UTC NOAA

Error!

Example: see airport list